Time;durP1;ratioP1;P1;durP2;ratioP2;P2;SDS_P1;SDS_P2;PMS_P1;PMS_P2;Temp;Humidity;BMP_temperature;BMP_pressure;BME280_temperature;BME280_humidity;BME280_pressure;Samples;Min_cycle;Max_cycle;Signal;HPM_P1;HPM_P2
2023/02/21 02:15:53;;;;;;;4.78;2.17;;;;;;;2.91;88.98;97661.50;5051127;28;20047;-62
2023/02/21 02:18:44;;;;;;;3.53;1.67;;;;;;;2.70;89.83;97660.53;5055171;28;20507;-63
2023/02/21 02:21:39;;;;;;;4.47;1.92;;;;;;;2.54;90.79;97663.50;5048653;28;20475;-62
2023/02/21 02:24:44;;;;;;;5.50;2.22;;;;;;;2.43;91.31;97651.50;5053754;28;20084;-62
2023/02/21 02:27:32;;;;;;;5.78;1.98;;;;;;;2.38;91.68;97657.41;5053545;28;20137;-62
2023/02/21 02:30:23;;;;;;;4.35;2.00;;;;;;;2.28;92.09;97654.25;5052196;28;20392;-61
2023/02/21 02:33:08;;;;;;;3.90;1.77;;;;;;;2.11;92.50;97649.16;5054406;28;20074;-62
2023/02/21 02:35:45;;;;;;;5.75;2.13;;;;;;;1.94;93.14;97649.38;5052577;28;20416;-61
2023/02/21 02:38:36;;;;;;;5.78;2.50;;;;;;;1.84;94.67;97654.19;5056220;28;20043;-61
2023/02/21 02:41:21;;;;;;;6.85;2.25;;;;;;;1.91;94.03;97647.09;5052917;28;20511;-62
2023/02/21 02:43:57;;;;;;;3.80;1.85;;;;;;;1.91;93.94;97654.25;5058908;28;20044;-62
2023/02/21 02:46:34;;;;;;;5.32;2.33;;;;;;;1.89;93.90;97657.16;5037493;28;20138;-62
2023/02/21 02:49:08;;;;;;;5.47;2.70;;;;;;;1.99;93.86;97656.00;5057141;28;20036;-62
2023/02/21 02:51:35;;;;;;;5.75;2.22;;;;;;;1.98;94.23;97657.03;5058182;28;20051;-62
2023/02/21 02:54:04;;;;;;;5.38;2.20;;;;;;;1.97;92.34;97655.34;5055272;28;20044;-63
2023/02/21 02:56:32;;;;;;;5.32;2.25;;;;;;;1.81;93.76;97649.25;5056255;28;20079;-62
2023/02/21 02:59:05;;;;;;;5.22;2.40;;;;;;;1.62;96.27;97646.16;5057756;28;20439;-62
2023/02/21 03:01:43;;;;;;;5.97;2.72;;;;;;;1.71;97.63;97644.22;5060354;28;20286;-62
2023/02/21 03:04:29;;;;;;;4.45;2.20;;;;;;;1.69;95.45;97648.88;5073245;28;20048;-62
2023/02/21 03:07:17;;;;;;;5.35;1.90;;;;;;;1.73;95.17;97652.03;5059079;28;20531;-63
2023/02/21 03:10:07;;;;;;;3.83;1.77;;;;;;;1.72;94.78;97653.88;5054080;28;20466;-63
2023/02/21 03:12:46;;;;;;;4.80;2.00;;;;;;;1.78;95.73;97657.63;5060503;28;20411;-62
2023/02/21 03:15:39;;;;;;;4.22;2.30;;;;;;;1.74;93.81;97656.34;5055450;28;20041;-62
2023/02/21 03:18:15;;;;;;;4.93;2.17;;;;;;;1.76;93.45;97655.13;5060119;28;20397;-62
2023/02/21 03:20:43;;;;;;;7.18;3.45;;;;;;;1.46;95.08;97665.88;5059290;28;20065;-62
2023/02/21 03:23:13;;;;;;;7.28;3.45;;;;;;;1.32;96.37;97658.72;5056627;28;20385;-63
2023/02/21 03:25:41;;;;;;;7.55;3.13;;;;;;;1.14;97.09;97660.75;5079929;28;20032;-63
2023/02/21 03:28:08;;;;;;;4.53;2.45;;;;;;;1.03;97.16;97667.38;5057470;28;20965;-62
2023/02/21 03:30:40;;;;;;;5.55;2.45;;;;;;;1.01;98.36;97663.22;5058662;28;20044;-62
2023/02/21 03:33:07;;;;;;;5.05;2.17;;;;;;;1.09;98.97;97662.28;5051183;28;20045;-62
2023/02/21 03:35:34;;;;;;;6.18;2.45;;;;;;;1.25;98.15;97659.44;5052723;28;20064;-62
2023/02/21 03:38:01;;;;;;;6.53;2.70;;;;;;;1.36;97.14;97658.16;5052396;28;20040;-62
2023/02/21 03:40:30;;;;;;;4.93;2.28;;;;;;;1.36;95.91;97663.50;5055924;28;20044;-63
2023/02/21 03:43:00;;;;;;;5.30;2.40;;;;;;;1.20;96.78;97659.19;5055176;28;20045;-63
2023/02/21 03:45:31;;;;;;;5.93;2.88;;;;;;;0.85;98.84;97657.03;5052269;28;20395;-62
2023/02/21 03:48:04;;;;;;;4.65;2.08;;;;;;;0.71;98.77;97665.84;5055028;28;20050;-62
2023/02/21 03:50:32;;;;;;;4.78;2.10;;;;;;;0.56;100.00;97666.66;5064218;28;20041;-63
2023/02/21 03:52:59;;;;;;;6.60;2.80;;;;;;;0.49;100.00;97661.22;5053744;28;20106;-62
2023/02/21 03:55:26;;;;;;;6.90;3.40;;;;;;;0.53;100.00;97664.34;5055484;28;20057;-62
2023/02/21 03:57:54;;;;;;;5.88;2.95;;;;;;;0.53;100.00;97659.03;5055559;28;20604;-61
2023/02/21 04:00:22;;;;;;;7.47;3.05;;;;;;;0.70;100.00;97653.56;5052301;28;20443;-62
2023/02/21 04:02:51;;;;;;;7.55;3.13;;;;;;;0.78;99.41;97664.13;5056269;28;20051;-62
2023/02/21 04:05:31;;;;;;;6.75;3.80;;;;;;;0.83;98.82;97661.75;5054928;28;20307;-62
2023/02/21 04:07:58;;;;;;;6.53;3.03;;;;;;;0.83;99.28;97659.06;5054829;28;20048;-62
2023/02/21 04:10:25;;;;;;;6.80;2.85;;;;;;;0.82;98.65;97659.25;5050961;28;20045;-62
2023/02/21 04:12:53;;;;;;;5.63;2.33;;;;;;;0.81;99.14;97654.94;5053891;28;20106;-62
2023/02/21 04:15:20;;;;;;;7.22;2.60;;;;;;;0.84;98.62;97649.22;5053822;28;20119;-62
2023/02/21 04:17:47;;;;;;;6.82;2.60;;;;;;;0.98;98.12;97647.59;5062040;28;20040;-62
2023/02/21 04:20:14;;;;;;;7.45;2.67;;;;;;;1.00;97.68;97648.25;5055642;28;20263;-62
2023/02/21 04:22:49;;;;;;;7.60;2.40;;;;;;;1.20;95.49;97651.19;5057096;28;20044;-62
2023/02/21 04:25:29;;;;;;;3.97;2.20;;;;;;;1.20;95.82;97647.66;5054969;28;20143;-62
2023/02/21 04:28:01;;;;;;;6.50;2.75;;;;;;;1.17;95.74;97657.72;5055881;28;20044;-62
2023/02/21 04:30:27;;;;;;;6.03;2.72;;;;;;;1.17;95.62;97655.03;5057463;28;20073;-62
2023/02/21 04:32:54;;;;;;;6.55;2.95;;;;;;;1.30;94.93;97659.72;5057356;28;20062;-62
2023/02/21 04:35:21;;;;;;;8.10;3.13;;;;;;;1.29;94.76;97651.94;5058209;28;20047;-62
2023/02/21 04:37:47;;;;;;;5.90;2.78;;;;;;;0.77;96.36;97652.63;5061939;28;20076;-62
2023/02/21 04:40:14;;;;;;;6.70;2.90;;;;;;;0.52;99.52;97657.38;5059505;28;20071;-62
2023/02/21 04:42:40;;;;;;;9.02;3.38;;;;;;;0.49;99.67;97660.41;5060210;28;20068;-63
2023/02/21 04:45:07;;;;;;;6.60;2.65;;;;;;;0.46;99.39;97660.75;5063588;28;20488;-62
2023/02/21 04:47:35;;;;;;;7.40;2.67;;;;;;;0.44;99.37;97665.44;5059015;28;20045;-62
2023/02/21 04:50:01;;;;;;;5.80;2.55;;;;;;;0.39;100.00;97660.63;5061964;28;20068;-62
2023/02/21 04:52:28;;;;;;;5.43;2.47;;;;;;;0.38;100.00;97659.78;5068297;28;20112;-62
2023/02/21 04:54:54;;;;;;;7.22;3.17;;;;;;;0.32;99.16;97665.84;5066317;28;20123;-63
2023/02/21 04:57:21;;;;;;;4.65;2.28;;;;;;;0.37;99.86;97665.31;5062559;28;20125;-62
2023/02/21 04:59:48;;;;;;;5.47;2.53;;;;;;;0.24;100.00;97660.59;5062721;28;20063;-63
2023/02/21 05:02:14;;;;;;;3.33;1.67;;;;;;;0.27;100.00;97660.25;5064485;28;20051;-62
2023/02/21 05:04:41;;;;;;;4.25;2.05;;;;;;;0.25;100.00;97662.25;5058803;28;20070;-62
2023/02/21 05:07:08;;;;;;;7.38;2.53;;;;;;;0.36;100.00;97664.50;5064864;28;20571;-63
2023/02/21 05:09:35;;;;;;;5.40;2.53;;;;;;;0.46;100.00;97660.75;5062744;28;20075;-62
2023/02/21 05:12:01;;;;;;;8.80;2.90;;;;;;;0.69;99.38;97657.19;5070302;28;20039;-63
2023/02/21 05:14:28;;;;;;;5.75;2.63;;;;;;;0.93;97.80;97653.47;5062054;28;20033;-62
2023/02/21 05:16:54;;;;;;;7.35;2.25;;;;;;;1.05;96.15;97643.19;5057993;28;20099;-62
2023/02/21 05:19:28;;;;;;;4.05;2.10;;;;;;;0.88;96.11;97640.69;5070491;28;20455;-62
2023/02/21 05:21:57;;;;;;;6.20;1.88;;;;;;;0.65;97.71;97646.09;5070466;28;20109;-62
2023/02/21 05:24:25;;;;;;;6.07;2.83;;;;;;;0.47;99.00;97643.75;5063254;28;20044;-62
2023/02/21 05:26:53;;;;;;;7.68;3.65;;;;;;;0.41;99.72;97636.47;5060737;28;20036;-61
2023/02/21 05:29:19;;;;;;;6.03;2.95;;;;;;;0.46;99.78;97639.44;5070768;28;20048;-62
2023/02/21 05:31:47;;;;;;;5.90;2.88;;;;;;;0.62;99.31;97647.28;5068426;28;20044;-61
2023/02/21 05:34:14;;;;;;;5.80;2.50;;;;;;;0.80;98.09;97637.28;5065537;28;20070;-62
2023/02/21 05:36:41;;;;;;;6.03;2.92;;;;;;;0.78;97.54;97645.47;5057170;28;20048;-62
2023/02/21 05:39:08;;;;;;;7.35;2.92;;;;;;;0.49;98.22;97641.75;5058723;28;20585;-62
2023/02/21 05:41:35;;;;;;;5.90;2.55;;;;;;;0.31;99.77;97639.38;5058170;28;20491;-62
2023/02/21 05:44:02;;;;;;;6.95;3.10;;;;;;;0.11;100.00;97642.56;5060264;28;20041;-62
2023/02/21 05:46:32;;;;;;;10.02;3.40;;;;;;;-0.04;100.00;97642.50;5056536;28;20040;-61
2023/02/21 05:49:01;;;;;;;5.78;2.72;;;;;;;0.12;100.00;97642.34;5065158;28;20132;-62
2023/02/21 05:51:33;;;;;;;5.75;2.65;;;;;;;0.25;100.00;97646.25;5065570;28;20048;-61
2023/02/21 05:53:59;;;;;;;5.70;2.42;;;;;;;0.24;100.00;97647.28;5066564;28;20084;-62
2023/02/21 05:56:26;;;;;;;4.38;2.20;;;;;;;0.32;100.00;97646.38;5067817;28;20105;-62
2023/02/21 05:58:52;;;;;;;5.80;2.20;;;;;;;0.34;100.00;97650.50;5064623;28;20085;-61
2023/02/21 06:01:19;;;;;;;6.15;1.92;;;;;;;0.40;100.00;97646.31;5067597;28;20080;-61
2023/02/21 06:03:45;;;;;;;5.28;1.92;;;;;;;0.46;99.44;97642.94;5068186;28;20043;-61
2023/02/21 06:06:14;;;;;;;4.15;2.38;;;;;;;0.52;98.79;97641.38;5059836;28;20036;-61
2023/02/21 06:08:43;;;;;;;5.43;2.42;;;;;;;0.36;99.28;97643.19;5059554;28;20036;-61
2023/02/21 06:11:10;;;;;;;6.03;2.35;;;;;;;0.24;100.00;97639.28;5060222;28;20098;-61
2023/02/21 06:13:36;;;;;;;6.85;2.65;;;;;;;0.25;100.00;97639.09;5058971;28;20094;-62
2023/02/21 06:16:03;;;;;;;7.63;2.97;;;;;;;0.19;100.00;97634.47;5058821;28;20037;-61
2023/02/21 06:18:29;;;;;;;6.80;2.70;;;;;;;0.25;100.00;97625.78;5063381;28;20086;-62
2023/02/21 06:20:56;;;;;;;6.60;2.42;;;;;;;0.34;100.00;97626.53;5060780;28;20051;-62
2023/02/21 06:23:22;;;;;;;8.25;2.78;;;;;;;0.44;100.00;97628.94;5060730;28;20501;-62
2023/02/21 06:25:49;;;;;;;6.57;2.85;;;;;;;0.58;100.00;97621.16;5061938;28;20567;-61
2023/02/21 06:28:16;;;;;;;5.45;2.17;;;;;;;0.77;98.75;97620.66;5068461;28;20554;-61
2023/02/21 06:30:43;;;;;;;6.15;2.17;;;;;;;0.83;98.42;97621.75;5067295;28;20389;-62
2023/02/21 06:33:09;;;;;;;5.35;2.55;;;;;;;0.89;97.97;97620.19;5065368;28;20059;-61
2023/02/21 06:35:36;;;;;;;4.88;2.00;;;;;;;0.95;97.86;97627.44;5066145;28;20426;-61
2023/02/21 06:38:02;;;;;;;4.57;1.65;;;;;;;1.00;98.69;97638.38;5069159;28;20060;-61
2023/02/21 06:40:29;;;;;;;4.53;2.05;;;;;;;1.10;97.44;97634.63;5069195;28;20044;-62
2023/02/21 06:42:55;;;;;;;4.03;1.77;;;;;;;0.89;96.92;97646.84;5068912;28;20492;-62
2023/02/21 06:45:22;;;;;;;5.95;2.85;;;;;;;0.55;98.82;97641.00;5066604;28;20123;-62
2023/02/21 06:47:48;;;;;;;5.82;2.05;;;;;;;0.42;100.00;97641.63;5064176;28;20496;-61
2023/02/21 06:50:15;;;;;;;6.40;1.98;;;;;;;0.34;100.00;97637.19;5065599;28;20064;-62
2023/02/21 06:52:42;;;;;;;4.50;2.00;;;;;;;0.43;100.00;97642.44;5069313;28;20098;-61
2023/02/21 06:55:08;;;;;;;5.93;3.05;;;;;;;0.40;100.00;97640.16;5062725;28;20040;-61
2023/02/21 06:57:35;;;;;;;4.43;1.70;;;;;;;0.48;100.00;97640.91;5065658;28;20040;-59
2023/02/21 07:00:03;;;;;;;6.28;2.30;;;;;;;0.52;100.00;97646.72;5070563;28;20044;-59
2023/02/21 07:02:30;;;;;;;4.15;1.98;;;;;;;0.62;100.00;97646.44;5064243;28;20048;-58
2023/02/21 07:04:57;;;;;;;8.38;2.40;;;;;;;0.87;99.17;97649.69;5063059;28;20634;-58
2023/02/21 07:07:23;;;;;;;7.45;2.58;;;;;;;1.06;98.76;97641.34;5066531;28;20132;-59
2023/02/21 07:09:50;;;;;;;8.48;3.15;;;;;;;0.98;98.21;97644.91;5059510;28;20036;-59
2023/02/21 07:12:16;;;;;;;5.85;2.90;;;;;;;1.03;98.94;97651.34;5061869;28;20082;-57
2023/02/21 07:14:42;;;;;;;7.30;3.08;;;;;;;0.96;97.37;97646.94;5060353;28;20045;-60
2023/02/21 07:17:09;;;;;;;6.13;3.00;;;;;;;0.84;98.75;97649.22;5066759;28;20048;-60
2023/02/21 07:19:35;;;;;;;4.00;2.38;;;;;;;0.88;99.33;97648.69;5071043;28;20275;-60
2023/02/21 07:22:02;;;;;;;7.13;2.72;;;;;;;0.97;98.77;97645.94;5068244;28;20470;-58
2023/02/21 07:24:29;;;;;;;5.53;2.45;;;;;;;1.03;98.95;97647.84;5065305;28;20044;-58
2023/02/21 07:26:55;;;;;;;9.13;3.38;;;;;;;1.13;97.92;97650.25;5063833;28;20045;-58
2023/02/21 07:29:22;;;;;;;5.18;2.72;;;;;;;1.32;97.12;97651.53;5071682;28;20036;-58
2023/02/21 07:31:49;;;;;;;6.25;2.60;;;;;;;1.47;96.08;97640.03;5064380;28;20049;-59
2023/02/21 07:34:16;;;;;;;7.88;2.92;;;;;;;1.40;96.26;97646.09;5062630;28;20458;-56
2023/02/21 07:36:43;;;;;;;7.57;2.60;;;;;;;1.54;95.97;97657.75;5064832;28;20483;-58
2023/02/21 07:39:10;;;;;;;7.72;3.00;;;;;;;1.72;95.66;97650.34;5069430;28;20562;-59
2023/02/21 07:41:36;;;;;;;9.77;3.10;;;;;;;1.61;95.55;97654.34;5060444;28;20048;-59
2023/02/21 07:44:03;;;;;;;4.90;2.38;;;;;;;1.81;95.96;97646.56;5055535;28;20048;-59
2023/02/21 07:46:29;;;;;;;7.82;2.85;;;;;;;1.93;95.14;97644.22;5055545;28;20099;-59
2023/02/21 07:48:56;;;;;;;6.95;2.58;;;;;;;2.05;94.90;97647.22;5056856;28;20186;-55
2023/02/21 07:51:27;;;;;;;8.45;2.92;;;;;;;2.15;94.43;97647.75;5056909;28;20044;-54
2023/02/21 07:53:53;;;;;;;4.90;2.43;;;;;;;2.21;93.92;97644.28;5018089;28;20060;-54
2023/02/21 07:56:20;;;;;;;8.65;2.67;;;;;;;2.42;94.48;97641.78;5051270;28;20670;-53
2023/02/21 07:58:47;;;;;;;6.93;2.47;;;;;;;2.58;93.54;97646.06;5055986;28;20102;-55
2023/02/21 08:01:13;;;;;;;4.30;2.35;;;;;;;2.72;94.27;97644.28;5052328;28;20123;-55
2023/02/21 08:03:40;;;;;;;6.13;2.17;;;;;;;2.85;93.05;97638.22;5060394;28;20343;-54
2023/02/21 08:06:08;;;;;;;5.95;2.47;;;;;;;3.04;92.03;97642.06;5057576;28;20480;-54
2023/02/21 08:08:35;;;;;;;5.70;2.63;;;;;;;3.24;89.96;97638.63;5064073;28;20095;-52
2023/02/21 08:11:01;;;;;;;4.22;2.00;;;;;;;3.37;89.97;97636.06;5038730;28;20049;-55
2023/02/21 08:13:28;;;;;;;4.10;2.35;;;;;;;3.54;89.56;97638.38;5053713;28;20457;-53
2023/02/21 08:15:54;;;;;;;5.72;2.60;;;;;;;3.69;89.09;97642.75;5046956;28;20081;-56
2023/02/21 08:18:25;;;;;;;4.85;2.08;;;;;;;3.83;88.68;97646.31;5028186;28;20052;-55
2023/02/21 08:20:53;;;;;;;5.30;2.05;;;;;;;4.05;88.60;97646.97;5052216;28;20132;-51
2023/02/21 08:23:20;;;;;;;8.55;2.30;;;;;;;4.29;88.57;97639.38;5060966;28;20499;-51
2023/02/21 08:25:47;;;;;;;4.25;2.17;;;;;;;4.49;87.38;97644.75;5052081;28;20206;-57
2023/02/21 08:28:14;;;;;;;6.30;2.15;;;;;;;4.62;87.31;97645.78;5053506;28;20147;-59
2023/02/21 08:30:41;;;;;;;4.70;2.00;;;;;;;4.86;87.03;97649.69;5050682;28;20226;-59
2023/02/21 08:33:08;;;;;;;5.03;1.70;;;;;;;4.98;85.94;97649.91;5054583;28;20752;-58
2023/02/21 08:35:35;;;;;;;4.38;2.00;;;;;;;5.15;85.59;97649.44;5054844;28;20102;-59
2023/02/21 08:38:02;;;;;;;3.95;1.90;;;;;;;5.30;85.39;97647.34;5056201;28;20093;-59
2023/02/21 08:40:30;;;;;;;5.38;1.88;;;;;;;5.43;85.19;97649.19;5051226;28;20090;-58
2023/02/21 08:42:58;;;;;;;5.72;3.88;;;;;;;5.57;84.98;97647.25;5054320;28;20232;-58
2023/02/21 08:45:27;;;;;;;5.50;2.80;;;;;;;5.65;84.58;97640.81;5056624;28;20079;-60
2023/02/21 08:47:54;;;;;;;5.68;2.10;;;;;;;5.75;84.61;97643.03;5057938;28;20048;-56
2023/02/21 08:50:22;;;;;;;5.00;1.80;;;;;;;5.85;84.13;97640.72;5050461;28;20084;-58
2023/02/21 08:52:49;;;;;;;3.92;1.67;;;;;;;5.97;83.81;97638.16;5051753;28;20037;-58
2023/02/21 08:55:16;;;;;;;3.70;1.70;;;;;;;6.07;83.68;97640.44;5054478;28;20045;-59
2023/02/21 08:57:43;;;;;;;3.60;1.63;;;;;;;6.20;82.61;97641.38;5054761;28;20032;-59
2023/02/21 09:00:12;;;;;;;4.22;1.83;;;;;;;6.30;82.48;97643.59;5062024;28;20106;-58
2023/02/21 09:02:39;;;;;;;3.80;1.50;;;;;;;6.42;81.24;97652.63;5041129;28;20123;-57
2023/02/21 09:05:17;;;;;;;4.72;2.05;;;;;;;6.56;79.86;97650.63;5058801;28;20041;-57
2023/02/21 09:07:48;;;;;;;4.18;1.83;;;;;;;6.71;78.86;97646.81;5035625;28;20072;-59
2023/02/21 09:10:16;;;;;;;3.05;1.42;;;;;;;6.83;77.96;97645.06;5059889;28;20036;-58
2023/02/21 09:12:43;;;;;;;3.28;1.38;;;;;;;7.01;76.68;97632.66;5057699;28;20426;-58
2023/02/21 09:15:09;;;;;;;5.43;1.77;;;;;;;7.22;74.55;97644.88;5053883;28;20097;-58
2023/02/21 09:17:36;;;;;;;3.95;2.17;;;;;;;7.37;73.28;97639.09;5065186;28;20032;-58
2023/02/21 09:20:05;;;;;;;4.38;1.60;;;;;;;7.51;73.02;97636.25;5050036;28;20041;-56
2023/02/21 09:22:33;;;;;;;4.28;1.70;;;;;;;7.61;72.37;97649.22;5057027;28;20051;-59
2023/02/21 09:25:00;;;;;;;3.08;1.40;;;;;;;7.71;71.41;97638.72;5055848;28;20041;-59
2023/02/21 09:27:36;;;;;;;4.55;1.50;;;;;;;7.83;70.59;97638.78;5057097;28;20415;-58
2023/02/21 09:30:15;;;;;;;3.50;1.48;;;;;;;7.90;70.20;97639.53;5053668;28;20151;-60
2023/02/21 09:32:42;;;;;;;4.18;1.20;;;;;;;7.99;69.11;97636.50;5054928;28;20044;-58
2023/02/21 09:35:12;;;;;;;2.63;1.10;;;;;;;8.06;68.61;97640.75;5053257;28;20094;-59
2023/02/21 09:37:41;;;;;;;4.95;1.13;;;;;;;8.17;67.58;97632.91;5059081;28;20041;-57
2023/02/21 09:40:23;;;;;;;4.82;1.10;;;;;;;8.30;67.12;97642.69;5055390;28;20102;-58
2023/02/21 09:42:53;;;;;;;3.78;1.40;;;;;;;8.45;66.15;97628.78;5057134;28;20033;-59
2023/02/21 09:45:21;;;;;;;1.50;0.75;;;;;;;8.55;66.30;97636.34;5053943;28;20053;-58
2023/02/21 09:47:57;;;;;;;3.58;1.00;;;;;;;8.65;66.31;97636.59;5058046;28;20047;-58
2023/02/21 09:50:29;;;;;;;3.65;1.17;;;;;;;8.76;65.44;97629.53;5052378;28;20045;-57
2023/02/21 09:52:57;;;;;;;1.98;1.10;;;;;;;8.87;64.84;97633.31;5056517;28;20681;-59
2023/02/21 09:55:37;;;;;;;4.45;1.02;;;;;;;8.94;64.65;97631.31;5057840;28;20045;-58
2023/02/21 09:58:12;;;;;;;5.28;1.45;;;;;;;9.11;64.21;97628.72;5053774;28;20531;-57
2023/02/21 10:00:39;;;;;;;2.72;1.25;;;;;;;9.23;63.28;97631.44;5054842;28;20119;-58
2023/02/21 10:03:42;;;;;;;2.95;0.88;;;;;;;9.26;63.07;97632.84;5054609;28;20090;-58
2023/02/21 10:06:30;;;;;;;2.75;1.13;;;;;;;9.39;62.25;97620.94;5054447;28;20040;-58
2023/02/21 10:09:35;;;;;;;4.45;1.40;;;;;;;9.54;61.50;97631.25;5049831;28;20041;-58
2023/02/21 10:12:18;;;;;;;2.30;1.10;;;;;;;9.58;61.68;97626.19;5027457;28;20046;-58
2023/02/21 10:14:54;;;;;;;2.60;1.10;;;;;;;9.59;61.90;97628.63;5057031;28;20438;-61
2023/02/21 10:17:28;;;;;;;2.30;0.90;;;;;;;9.58;62.08;97628.91;5045572;28;20048;-61
2023/02/21 10:20:03;;;;;;;3.95;1.20;;;;;;;9.58;61.55;97626.19;5058408;28;20056;-60
2023/02/21 10:22:36;;;;;;;1.85;0.85;;;;;;;9.61;61.68;97629.22;5047201;28;20045;-60
2023/02/21 10:25:30;;;;;;;2.88;1.27;;;;;;;9.72;61.67;97613.19;5046801;28;20123;-62
2023/02/21 10:28:00;;;;;;;2.75;1.05;;;;;;;9.80;60.92;97623.63;5050942;28;20139;-60
2023/02/21 10:30:35;;;;;;;4.05;1.30;;;;;;;9.83;60.22;97620.47;5055003;28;20037;-57
2023/02/21 10:33:06;;;;;;;2.08;0.70;;;;;;;9.89;59.96;97613.28;5050043;28;20124;-60
2023/02/21 10:35:34;;;;;;;1.90;0.88;;;;;;;10.04;59.83;97614.59;5050796;28;20439;-59
2023/02/21 10:38:06;;;;;;;3.83;0.90;;;;;;;10.10;59.93;97614.44;5047908;28;20565;-60
2023/02/21 10:40:43;;;;;;;2.92;0.75;;;;;;;10.15;59.34;97611.03;5055356;28;20120;-58
2023/02/21 10:43:27;;;;;;;3.45;0.85;;;;;;;10.28;59.29;97616.13;5049845;28;20037;-59
2023/02/21 10:46:12;;;;;;;1.75;0.70;;;;;;;10.38;58.82;97617.38;5052170;28;20290;-58
2023/02/21 10:48:41;;;;;;;1.33;0.60;;;;;;;10.46;58.64;97608.88;5057622;28;20062;-59
2023/02/21 10:51:12;;;;;;;1.77;0.70;;;;;;;10.54;57.57;97605.75;5053033;28;20482;-60
2023/02/21 10:53:45;;;;;;;3.70;0.60;;;;;;;10.63;57.75;97610.78;5054377;28;20119;-60
2023/02/21 10:56:17;;;;;;;2.70;0.60;;;;;;;10.75;57.61;97605.25;5049649;28;20087;-59
2023/02/21 10:58:46;;;;;;;3.30;1.13;;;;;;;10.75;57.83;97602.56;5046952;28;20045;-60
2023/02/21 11:01:31;;;;;;;2.38;0.77;;;;;;;10.74;58.17;97599.03;5047551;28;20114;-59
2023/02/21 11:04:02;;;;;;;2.75;1.13;;;;;;;10.86;57.54;97600.81;5048326;28;20052;-60
2023/02/21 11:06:39;;;;;;;1.83;0.70;;;;;;;10.89;57.50;97603.03;5050157;28;20526;-60
2023/02/21 11:09:26;;;;;;;4.03;0.77;;;;;;;10.94;57.62;97592.28;5053450;28;20787;-60
2023/02/21 11:12:14;;;;;;;4.50;0.93;;;;;;;11.04;56.24;97589.72;5053858;28;20411;-60
2023/02/21 11:14:43;;;;;;;3.08;0.85;;;;;;;11.21;56.60;97593.47;5050550;28;20079;-60
2023/02/21 11:17:22;;;;;;;3.22;0.90;;;;;;;11.41;56.28;97582.88;5059843;28;20036;-60
2023/02/21 11:19:56;;;;;;;2.42;0.98;;;;;;;11.40;56.96;97586.66;5046189;28;20099;-60
2023/02/21 11:22:34;;;;;;;2.38;0.82;;;;;;;11.41;56.85;97579.34;5055146;28;20431;-60
2023/02/21 11:25:19;;;;;;;2.42;0.88;;;;;;;11.54;56.40;97578.16;5060618;28;20499;-59
2023/02/21 11:27:59;;;;;;;0.88;0.50;;;;;;;11.54;56.48;97573.53;5053015;28;20044;-60
2023/02/21 11:30:26;;;;;;;2.58;0.73;;;;;;;11.53;56.03;97563.75;5058459;28;20041;-59
2023/02/21 11:32:56;;;;;;;2.55;0.80;;;;;;;11.55;56.52;97561.63;5058796;28;20109;-60
2023/02/21 11:35:33;;;;;;;3.20;0.80;;;;;;;11.67;55.19;97550.63;5057447;28;20041;-60
2023/02/21 11:38:01;;;;;;;1.95;1.00;;;;;;;11.69;55.47;97550.38;5059179;28;20096;-59
2023/02/21 11:40:43;;;;;;;2.03;0.77;;;;;;;11.70;54.13;97541.16;5056322;28;20056;-61
2023/02/21 11:43:09;;;;;;;;;;;;;;;11.81;53.89;97536.66;5052791;28;20103;-60
2023/02/21 11:45:43;;;;;;;4.82;0.90;;;;;;;11.96;52.79;97536.00;5055584;28;19988;-59
2023/02/21 11:48:17;;;;;;;3.40;0.60;;;;;;;12.02;53.03;97526.81;5051228;28;20102;-59
2023/02/21 11:50:50;;;;;;;0.63;0.43;;;;;;;12.11;52.85;97524.50;5047867;28;20040;-59
2023/02/21 11:53:38;;;;;;;3.50;0.75;;;;;;;12.15;53.43;97524.78;5050117;28;20123;-60
2023/02/21 11:56:23;;;;;;;2.83;0.88;;;;;;;12.23;53.82;97519.72;5056291;28;20040;-59
2023/02/21 11:58:49;;;;;;;2.08;0.75;;;;;;;12.35;52.72;97519.53;5064187;28;20303;-60
2023/02/21 12:01:23;;;;;;;6.80;2.25;;;;;;;12.35;52.76;97514.09;5052947;28;20072;-60
2023/02/21 12:04:15;;;;;;;2.05;0.63;;;;;;;12.45;53.15;97512.53;5064657;28;20040;-58
2023/02/21 12:06:54;;;;;;;3.10;0.85;;;;;;;12.48;52.89;97506.56;5048088;28;20064;-60
2023/02/21 12:09:35;;;;;;;2.45;0.82;;;;;;;12.55;53.56;97501.75;5054990;28;20297;-60
2023/02/21 12:12:12;;;;;;;2.08;0.60;;;;;;;12.56;52.67;97488.97;5056651;28;20040;-60
2023/02/21 12:14:56;;;;;;;6.95;2.17;;;;;;;12.60;54.75;97490.06;5067490;28;20040;-60
2023/02/21 12:17:59;;;;;;;2.13;0.80;;;;;;;12.73;53.87;97491.53;5048932;28;20138;-60
2023/02/21 12:20:44;;;;;;;4.13;1.05;;;;;;;12.74;55.44;97477.69;5057449;28;20612;-60
2023/02/21 12:23:26;;;;;;;8.75;1.60;;;;;;;12.75;55.40;97473.88;5058715;28;20121;-58
2023/02/21 12:25:55;;;;;;;;;;;;;;;12.85;55.34;97464.97;5061442;28;20051;-59
2023/02/21 12:28:47;;;;;;;2.10;1.40;;;;;;;12.90;54.94;97461.44;5056984;28;19932;-60
2023/02/21 12:31:28;;;;;;;3.75;1.58;;;;;;;12.82;55.14;97457.34;5053277;28;20097;-60
2023/02/21 12:34:07;;;;;;;4.85;1.73;;;;;;;12.90;54.72;97444.34;5060930;28;20040;-60
2023/02/21 12:37:01;;;;;;;6.32;1.20;;;;;;;12.94;54.38;97453.59;5063218;28;20040;-59
2023/02/21 12:40:03;;;;;;;3.95;1.30;;;;;;;12.96;55.10;97440.53;5054175;28;20040;-59
2023/02/21 12:42:34;;;;;;;4.32;1.38;;;;;;;13.05;54.33;97440.84;5036054;28;20476;-60
2023/02/21 12:45:23;;;;;;;3.50;1.52;;;;;;;13.16;54.22;97433.56;5054802;28;20041;-59
2023/02/21 12:47:54;;;;;;;4.13;1.30;;;;;;;13.22;54.26;97437.91;5060416;28;20103;-59
2023/02/21 12:50:25;;;;;;;5.60;1.33;;;;;;;13.22;54.32;97432.47;5056777;28;20126;-58
2023/02/21 12:53:02;;;;;;;4.78;1.98;;;;;;;13.25;53.98;97432.78;5046486;28;20083;-60
2023/02/21 12:55:34;;;;;;;5.60;1.83;;;;;;;13.32;55.38;97426.25;5058575;28;20037;-59
2023/02/21 12:58:51;;;;;;;4.70;1.75;;;;;;;13.35;53.70;97415.63;5060062;28;20155;-59
2023/02/21 13:01:24;;;;;;;5.82;1.67;;;;;;;13.33;53.66;97408.84;5047231;28;20048;-61
2023/02/21 13:04:14;;;;;;;3.97;1.58;;;;;;;13.44;53.46;97413.22;5062325;28;20033;-61
2023/02/21 13:06:50;;;;;;;4.95;1.70;;;;;;;13.48;52.96;97403.47;5066515;28;20040;-59
2023/02/21 13:09:41;;;;;;;4.55;1.75;;;;;;;13.50;52.76;97403.19;5048261;28;20124;-59
2023/02/21 13:12:13;;;;;;;5.95;1.85;;;;;;;13.57;52.40;97395.59;5055560;28;20097;-59
2023/02/21 13:14:49;;;;;;;3.55;1.55;;;;;;;13.56;52.70;97393.13;5055749;28;20099;-59
2023/02/21 13:17:17;;;;;;;6.85;1.95;;;;;;;13.52;51.48;97390.13;5057836;28;20118;-59
2023/02/21 13:19:54;;;;;;;4.10;1.70;;;;;;;13.56;51.82;97388.50;5054365;28;20553;-59
2023/02/21 13:22:26;;;;;;;6.97;2.00;;;;;;;13.57;51.64;97384.72;5058014;28;20122;-60
2023/02/21 13:25:11;;;;;;;6.20;2.15;;;;;;;13.63;51.78;97380.06;5060978;28;20258;-62
2023/02/21 13:28:14;;;;;;;8.00;2.20;;;;;;;13.69;51.21;97381.72;5065785;28;20480;-60
2023/02/21 13:30:48;;;;;;;4.85;2.13;;;;;;;13.67;51.37;97372.19;5054931;28;20099;-60
2023/02/21 13:33:37;;;;;;;5.10;2.33;;;;;;;13.73;51.00;97369.19;5056445;28;20052;-60
2023/02/21 13:36:30;;;;;;;4.65;1.95;;;;;;;13.75;51.02;97367.00;5060670;28;20582;-60
2023/02/21 13:39:19;;;;;;;5.40;2.20;;;;;;;13.81;50.67;97358.88;5054771;28;20048;-60
2023/02/21 13:41:56;;;;;;;7.82;2.55;;;;;;;13.79;50.87;97359.94;5055166;28;20463;-59
2023/02/21 13:44:33;;;;;;;4.22;1.90;;;;;;;13.82;50.75;97353.13;5054722;28;20044;-54
2023/02/21 13:47:02;;;;;;;8.50;2.38;;;;;;;13.81;50.36;97343.34;5050288;28;20037;-60
2023/02/21 13:49:49;;;;;;;5.15;2.40;;;;;;;13.89;50.94;97340.06;5058112;28;20120;-60
2023/02/21 13:52:18;;;;;;;6.57;2.63;;;;;;;13.91;50.33;97343.34;5060058;28;20260;-60
2023/02/21 13:55:10;;;;;;;4.65;2.25;;;;;;;13.93;50.10;97331.34;5050639;28;20091;-58
2023/02/21 13:57:39;;;;;;;6.20;2.03;;;;;;;14.01;50.17;97331.59;5053240;28;20337;-59
2023/02/21 14:00:23;;;;;;;6.88;1.88;;;;;;;14.07;49.56;97326.97;5058677;28;20044;-61
2023/02/21 14:03:08;;;;;;;5.50;1.92;;;;;;;14.15;49.47;97322.84;5048937;28;20041;-59
2023/02/21 14:05:44;;;;;;;5.85;2.28;;;;;;;14.22;49.08;97323.38;5058626;28;20085;-60
2023/02/21 14:08:24;;;;;;;5.47;2.00;;;;;;;14.39;48.96;97317.63;5062144;28;20118;-60
2023/02/21 14:10:53;;;;;;;4.10;1.98;;;;;;;14.68;48.71;97314.19;5058862;28;20041;-59
2023/02/21 14:13:32;;;;;;;5.95;2.13;;;;;;;15.28;47.57;97314.41;5061372;28;20094;-59
2023/02/21 14:16:14;;;;;;;7.43;2.55;;;;;;;15.93;45.58;97307.88;5051166;28;20121;-59
2023/02/21 14:18:50;;;;;;;5.80;2.42;;;;;;;16.62;43.86;97303.28;5059370;28;20135;-60
2023/02/21 14:21:28;;;;;;;10.05;2.72;;;;;;;17.60;41.93;97302.94;5056512;28;20080;-59